Prairie Farm, Wisconsin
Current Conditions -  °F | °C
As of 7:55 PM on Saturday 25 Oct 2014 (Local Time) from KRPD Reporting Station
Clear Clear  
Wind Chill: 47°   Ceiling: Unl
Heat Index: 49°   Visibility: 10mi
Dew Point: 24°   Wind: 6mph
Humidity: 37%   Direction: 270°W
Pressure: 30.01"   Gusts: NA
Location:  45.24°N, 91.98°W
Report Text: KRPD 260055Z AUTO 27005KT 10SM CLR 10/M04 A3001 RMK AO2 T00951045
Loading
Personal Weather Stations






























Interactive Weather Map
Tropical Storm Tracking
New forecast layout! Learn more

10-Day Weather Forecast

Advertisements
Track Severe Weather on mobile